CheckWX is a tool to help pilots better visualize weather data.  It is not intended as a substitute for an official pre-flight weather briefing.

00:26:22 UTC

KPTT METAR
Pratt Regional Airport
Pratt, Kansas, USA
Current

31 mins ago

KPTT 272355Z AUTO 03008KT 10SM BKN060 23/10 A2991 RMK AO2 T02340099 10256 20232
Observed
May-27 @ 23:55 UTC
Wind
  • 030° at 8 KTS
Visibility
Flight Rules
VFR
Cloud Levels
  • Broken at 6,000' AGL
Temperature
23°C / 73°F
Dewpoint
10°C / 50°F
Humidity
44%
Altimeter
29.91" Hg
Pressure
1012.92 hPa
Previous

51 mins ago

KPTT 272335Z AUTO 04007KT 10SM SCT060 24/09 A2991 RMK AO2 T02420085
Observed
May-27 @ 23:35 UTC
Wind
  • 040° at 7 KTS
Visibility
Flight Rules
VFR
Cloud Levels
  • Scattered at 6,000' AGL
Temperature
24°C / 75°F
Dewpoint
C / 46°F
Humidity
36%
Altimeter
29.91" Hg
Pressure
1012.92 hPa
Previous

1 hour ago

KPTT 272315Z AUTO 03007KT 10SM CLR 24/08 A2991 RMK AO2 T02430081
Observed
May-27 @ 23:15 UTC
Wind
  • 030° at 7 KTS
Visibility
Flight Rules
VFR
Cloud Levels
  • Clear skies
Temperature
24°C / 75°F
Dewpoint
C / 46°F
Humidity
36%
Altimeter
29.91" Hg
Pressure
1012.92 hPa